KGIF/GIF METAR and TAF weather

Enter ICAO airport designator
Station Type Date Time Source
KGIF METAR 2019/10/20 18:53 UTC NOAA

KGIF 201853Z AUTO 30006KT 10SM BKN045 32/21 A2992 RMK AO2 SLP128 T03220206


Station Type Date Time Source
KGIF Decoded METAR 2019/10/20 18:53 UTC NOAA

WINTER HAVENS GILBERT AIRPORT , FL, United States (KGIF) 28-04N 81-45W 43M
Oct 20, 2019 - 02:53 PM EDT / 2019.10.20 1853 UTC
Wind: from the WNW (300 degrees) at 7 MPH (6 KT):0
Visibility: 10 mile(s):0
Sky conditions: mostly cloudy
Temperature: 90.0 F (32.2 C)
Heat index: 94.6 F (34.8 C):1
Dew Point: 69.1 F (20.6 C)
Relative Humidity: 50%
Pressure (altimeter): 29.92 in. Hg (1013 hPa)
ob: KGIF 201853Z AUTO 30006KT 10SM BKN045 32/21 A2992 RMK AO2 SLP128 T03220206
cycle: 19

Station Type Date Time Source
KGIF TAF UTC NOAA

Error!

Example: see airport list